Time;durP1;ratioP1;P1;durP2;ratioP2;P2;SDS_P1;SDS_P2;PMS_P1;PMS_P2;Temp;Humidity;BMP_temperature;BMP_pressure;BME280_temperature;BME280_humidity;BME280_pressure;Samples;Min_cycle;Max_cycle;Signal;HPM_P1;HPM_P2
2022/06/24 00:00:43;;;;;;;10.50;5.80;;;-40.00;99.90;;;;;;5134567;28;20180;-75
2022/06/24 00:03:17;;;;;;;7.33;6.30;;;-40.00;99.90;;;;;;5136117;27;20679;-78
2022/06/24 00:05:43;;;;;;;17.83;7.17;;;-40.00;99.90;;;;;;5135937;27;20596;-79
2022/06/24 00:08:09;;;;;;;9.83;7.17;;;-40.00;99.90;;;;;;5136096;27;20219;-78
2022/06/24 00:10:36;;;;;;;20.63;8.90;;;-40.00;99.90;;;;;;5139275;27;20176;-76
2022/06/24 00:13:04;;;;;;;9.83;5.97;;;-40.00;99.90;;;;;;5139760;27;20512;-78
2022/06/24 00:15:33;;;;;;;9.67;6.53;;;-40.00;99.90;;;;;;5139260;27;20176;-75
2022/06/24 00:18:13;;;;;;;7.37;6.30;;;-40.00;99.90;;;;;;5139610;27;20481;-78
2022/06/24 00:20:50;;;;;;;8.50;6.70;;;-40.00;99.90;;;;;;5138420;27;20577;-78
2022/06/24 00:23:21;;;;;;;6.43;6.00;;;-40.00;99.90;;;;;;5139565;27;20179;-77
2022/06/24 00:25:49;;;;;;;7.00;6.37;;;-40.00;99.90;;;;;;5139415;27;20219;-77
2022/06/24 00:28:16;;;;;;;7.03;6.33;;;-40.00;99.90;;;;;;5139324;27;20161;-78
2022/06/24 00:30:49;;;;;;;6.23;5.73;;;-40.00;99.90;;;;;;5139012;27;20166;-77
2022/06/24 00:33:21;;;;;;;6.17;5.67;;;-40.00;99.90;;;;;;5139423;27;20165;-78
2022/06/24 00:35:56;;;;;;;7.40;5.93;;;-40.00;99.90;;;;;;5139217;27;20201;-79
2022/06/24 00:38:30;;;;;;;8.33;6.87;;;-40.00;99.90;;;;;;5139047;27;20660;-80
2022/06/24 00:41:07;;;;;;;6.60;5.87;;;-40.00;99.90;;;;;;5139068;27;20168;-77
2022/06/24 00:43:44;;;;;;;6.60;6.00;;;-40.00;99.90;;;;;;5139108;27;20204;-78
2022/06/24 00:46:24;;;;;;;7.60;6.53;;;-40.00;99.90;;;;;;5138897;27;20534;-76
2022/06/24 00:48:52;;;;;;;6.63;6.03;;;-40.00;99.90;;;;;;5139072;27;20153;-78
2022/06/24 00:51:20;;;;;;;6.47;5.77;;;-40.00;99.90;;;;;;5137535;27;20204;-79
2022/06/24 00:53:52;;;;;;;6.87;6.27;;;-40.00;99.90;;;;;;5139032;27;20157;-76
2022/06/24 00:56:23;;;;;;;7.17;6.47;;;-40.00;99.90;;;;;;5139108;27;20627;-77
2022/06/24 00:58:57;;;;;;;7.13;6.60;;;-40.00;99.90;;;;;;5138502;27;20180;-71
2022/06/24 01:01:42;;;;;;;5.83;5.37;;;-40.00;99.90;;;;;;5138488;27;20245;-69
2022/06/24 01:04:10;;;;;;;6.40;5.80;;;-40.00;99.90;;;;;;5138649;27;20293;-69
2022/06/24 01:06:40;;;;;;;7.50;6.57;;;-40.00;99.90;;;;;;5138584;27;20169;-73
2022/06/24 01:09:07;;;;;;;6.30;5.90;;;-40.00;99.90;;;;;;5138695;27;20170;-78
2022/06/24 01:11:42;;;;;;;5.90;5.50;;;-40.00;99.90;;;;;;5138448;27;20165;-76
2022/06/24 01:14:10;;;;;;;8.53;6.63;;;-40.00;99.90;;;;;;5138458;27;20173;-76
2022/06/24 01:16:36;;;;;;;7.20;6.53;;;-40.00;99.90;;;;;;5138495;27;20169;-71
2022/06/24 01:19:04;;;;;;;6.67;6.07;;;-40.00;99.90;;;;;;5138512;27;20162;-76
2022/06/24 01:21:45;;;;;;;8.67;6.23;;;-40.00;99.90;;;;;;5137255;27;20173;-76
2022/06/24 01:24:20;;;;;;;7.37;6.70;;;-40.00;99.90;;;;;;5138240;27;20184;-79
2022/06/24 01:26:57;;;;;;;7.43;6.70;;;-40.00;99.90;;;;;;5138196;27;20169;-79
2022/06/24 01:29:24;;;;;;;6.77;6.33;;;-40.00;99.90;;;;;;5137010;27;20455;-80
2022/06/24 01:31:52;;;;;;;6.70;6.10;;;-40.00;99.90;;;;;;5138027;27;20158;-80
2022/06/24 01:34:20;;;;;;;7.07;6.43;;;-40.00;99.90;;;;;;5138058;27;20196;-78
2022/06/24 01:36:46;;;;;;;6.23;5.77;;;-40.00;99.90;;;;;;5138335;27;20233;-77
2022/06/24 01:39:12;;;;;;;7.20;6.50;;;-40.00;99.90;;;;;;5137971;27;20165;-68
2022/06/24 01:41:38;;;;;;;8.20;7.43;;;-40.00;99.90;;;;;;5138037;27;20170;-80
2022/06/24 01:44:04;;;;;;;6.40;5.90;;;-40.00;99.90;;;;;;5136711;27;20172;-80
2022/06/24 01:46:30;;;;;;;6.97;6.27;;;-40.00;99.90;;;;;;5137791;27;20231;-75
2022/06/24 01:48:56;;;;;;;7.10;6.40;;;-40.00;99.90;;;;;;5137842;27;20214;-78
2022/06/24 01:51:24;;;;;;;8.33;7.00;;;-40.00;99.90;;;;;;5137392;27;20475;-78
2022/06/24 01:53:50;;;;;;;8.57;7.77;;;-40.00;99.90;;;;;;5137878;27;20165;-77
2022/06/24 01:56:17;;;;;;;7.93;7.17;;;-40.00;99.90;;;;;;5137443;27;20169;-76
2022/06/24 01:58:43;;;;;;;8.83;7.93;;;-40.00;99.90;;;;;;5136471;27;20263;-79
2022/06/24 02:01:09;;;;;;;9.93;7.60;;;-40.00;99.90;;;;;;5137403;27;20173;-78
2022/06/24 02:03:35;;;;;;;7.23;6.53;;;-40.00;99.90;;;;;;5137188;27;20169;-75
2022/06/24 02:06:05;;;;;;;7.03;6.43;;;-40.00;99.90;;;;;;5137387;27;20209;-78
2022/06/24 02:08:31;;;;;;;9.13;6.70;;;-40.00;99.90;;;;;;5137199;27;20593;-76
2022/06/24 02:13:43;;;;;;;7.97;7.33;;;-40.00;99.90;;;;;;5137546;27;20207;-75
2022/06/24 02:16:10;;;;;;;7.53;6.30;;;-40.00;99.90;;;;;;5137275;27;20206;-78
2022/06/24 02:18:36;;;;;;;6.33;5.90;;;-40.00;99.90;;;;;;5137196;27;20168;-80
2022/06/24 02:21:02;;;;;;;7.27;6.57;;;-40.00;99.90;;;;;;5137233;27;20173;-74
2022/06/24 02:23:28;;;;;;;6.80;5.90;;;-40.00;99.90;;;;;;5137244;27;20166;-76
2022/06/24 02:25:55;;;;;;;6.60;6.00;;;-40.00;99.90;;;;;;5136843;27;20193;-78
2022/06/24 02:28:21;;;;;;;6.47;5.93;;;-40.00;99.90;;;;;;5136811;27;20214;-77
2022/06/24 02:30:50;;;;;;;7.97;7.27;;;-40.00;99.90;;;;;;5137031;27;20468;-77
2022/06/24 02:33:16;;;;;;;7.37;6.77;;;-40.00;99.90;;;;;;5136787;27;20564;-79
2022/06/24 02:35:42;;;;;;;7.57;6.87;;;-40.00;99.90;;;;;;5137046;27;20183;-80
2022/06/24 02:38:08;;;;;;;7.90;6.97;;;-40.00;99.90;;;;;;5136879;27;20221;-75
2022/06/24 02:40:46;;;;;;;8.23;7.50;;;-40.00;99.90;;;;;;5136377;27;20518;-79
2022/06/24 02:43:18;;;;;;;7.10;6.60;;;-40.00;99.90;;;;;;5136803;27;20243;-80
2022/06/24 02:45:57;;;;;;;8.67;7.67;;;-40.00;99.90;;;;;;5136825;27;20189;-74
2022/06/24 02:48:23;;;;;;;8.53;7.80;;;-40.00;99.90;;;;;;5136648;27;20157;-77
2022/06/24 02:50:50;;;;;;;11.30;9.07;;;-40.00;99.90;;;;;;5135566;27;20264;-75
2022/06/24 02:53:17;;;;;;;10.43;9.53;;;-40.00;99.90;;;;;;5136578;27;20161;-71
2022/06/24 02:55:45;;;;;;;9.60;8.63;;;-40.00;99.90;;;;;;5136432;27;20161;-71
2022/06/24 02:58:11;;;;;;;8.17;7.33;;;-40.00;99.90;;;;;;5136519;27;20177;-69
2022/06/24 03:00:39;;;;;;;7.17;6.63;;;-40.00;99.90;;;;;;5118512;27;20523;-72
2022/06/24 03:03:06;;;;;;;8.70;7.93;;;-40.00;99.90;;;;;;5136590;27;20158;-71
2022/06/24 03:05:32;;;;;;;7.53;6.93;;;-40.00;99.90;;;;;;5136369;27;20213;-70
2022/06/24 03:07:58;;;;;;;7.13;6.43;;;-40.00;99.90;;;;;;5136335;28;20174;-69
2022/06/24 03:10:23;;;;;;;7.83;7.10;;;-40.00;99.90;;;;;;5135052;28;20172;-69
2022/06/24 03:12:49;;;;;;;8.87;7.97;;;-40.00;99.90;;;;;;5135449;28;20170;-71
2022/06/24 03:15:15;;;;;;;9.87;6.53;;;-40.00;99.90;;;;;;5136319;27;20165;-70
2022/06/24 03:17:41;;;;;;;5.90;5.43;;;-40.00;99.90;;;;;;5136436;27;20248;-77
2022/06/24 03:20:08;;;;;;;7.27;6.57;;;-40.00;99.90;;;;;;5136330;28;20161;-79
2022/06/24 03:22:35;;;;;;;6.00;5.67;;;-40.00;99.90;;;;;;5136503;28;20628;-68
2022/06/24 03:25:01;;;;;;;8.93;6.50;;;-40.00;99.90;;;;;;5136076;27;20189;-78
2022/06/24 03:27:27;;;;;;;5.50;5.10;;;-40.00;99.90;;;;;;5136442;28;20222;-68
2022/06/24 03:29:53;;;;;;;6.97;6.37;;;-40.00;99.90;;;;;;5136461;28;20161;-72
2022/06/24 03:32:18;;;;;;;6.13;5.53;;;-40.00;99.90;;;;;;5136445;27;20215;-70
2022/06/24 03:34:44;;;;;;;8.27;7.47;;;-40.00;99.90;;;;;;5136265;28;20477;-70
2022/06/24 03:37:10;;;;;;;8.97;8.13;;;-40.00;99.90;;;;;;5136357;27;20652;-77
2022/06/24 03:39:36;;;;;;;6.93;5.93;;;-40.00;99.90;;;;;;5135979;27;20170;-75
2022/06/24 03:42:03;;;;;;;7.60;7.00;;;-40.00;99.90;;;;;;5136509;27;20201;-70
2022/06/24 03:44:29;;;;;;;8.17;6.83;;;-40.00;99.90;;;;;;5137850;27;20226;-71
2022/06/24 03:46:54;;;;;;;10.43;7.93;;;-40.00;99.90;;;;;;5140508;27;20225;-69
2022/06/24 03:49:20;;;;;;;6.90;6.37;;;-40.00;99.90;;;;;;5140262;27;20581;-70
2022/06/24 03:51:47;;;;;;;9.33;7.13;;;-40.00;99.90;;;;;;5139294;27;20209;-69
2022/06/24 03:54:14;;;;;;;9.40;8.70;;;-40.00;99.90;;;;;;5139731;27;20476;-71
2022/06/24 03:56:40;;;;;;;7.90;7.20;;;-40.00;99.90;;;;;;5140025;27;20184;-70
2022/06/24 03:59:05;;;;;;;8.50;7.60;;;-40.00;99.90;;;;;;5140058;27;20556;-71
2022/06/24 04:01:31;;;;;;;9.23;8.33;;;-40.00;99.90;;;;;;5139891;27;20193;-72
2022/06/24 04:03:57;;;;;;;9.17;8.43;;;-40.00;99.90;;;;;;5140026;27;20565;-70
2022/06/24 04:06:23;;;;;;;10.03;9.03;;;-40.00;99.90;;;;;;5140123;27;20652;-72
2022/06/24 04:08:49;;;;;;;8.73;8.00;;;-40.00;99.90;;;;;;5139741;27;20177;-72
2022/06/24 04:11:16;;;;;;;11.90;9.57;;;-40.00;99.90;;;;;;5139808;27;20173;-70
2022/06/24 04:13:43;;;;;;;15.00;8.07;;;-40.00;99.90;;;;;;5139828;27;20176;-77
2022/06/24 04:16:09;;;;;;;9.40;8.60;;;-40.00;99.90;;;;;;5139904;27;20174;-77
2022/06/24 04:18:36;;;;;;;8.37;7.87;;;-40.00;99.90;;;;;;5139609;27;20177;-73
2022/06/24 04:21:02;;;;;;;8.50;7.70;;;-40.00;99.90;;;;;;5139816;27;20169;-77
2022/06/24 04:23:28;;;;;;;12.60;7.97;;;-40.00;99.90;;;;;;5139612;27;20177;-77
2022/06/24 04:25:54;;;;;;;8.93;7.80;;;-40.00;99.90;;;;;;5138490;27;20604;-75
2022/06/24 04:28:20;;;;;;;10.53;7.60;;;-40.00;99.90;;;;;;5139653;27;20176;-69
2022/06/24 04:30:46;;;;;;;7.87;7.00;;;-40.00;99.90;;;;;;5139498;27;20175;-72
2022/06/24 04:33:12;;;;;;;8.33;7.50;;;-40.00;99.90;;;;;;5139699;27;20162;-74
2022/06/24 04:35:40;;;;;;;8.77;7.60;;;-40.00;99.90;;;;;;5139364;27;20185;-75
2022/06/24 04:38:06;;;;;;;8.50;7.00;;;-40.00;99.90;;;;;;5139351;27;20242;-75
2022/06/24 04:40:31;;;;;;;8.33;6.43;;;-40.00;99.90;;;;;;5139043;27;20169;-77
2022/06/24 04:42:57;;;;;;;8.47;7.77;;;-40.00;99.90;;;;;;5139483;27;20596;-78
2022/06/24 04:45:23;;;;;;;6.90;6.47;;;-40.00;99.90;;;;;;5138040;27;20508;-73
2022/06/24 04:47:49;;;;;;;7.17;5.67;;;-40.00;99.90;;;;;;5139057;27;20538;-76
2022/06/24 04:50:15;;;;;;;6.57;5.97;;;-40.00;99.90;;;;;;5137313;27;20173;-72
2022/06/24 04:52:41;;;;;;;5.93;5.43;;;-40.00;99.90;;;;;;5138997;27;20204;-70
2022/06/24 04:55:07;;;;;;;6.97;6.27;;;-40.00;99.90;;;;;;5138088;27;20173;-72
2022/06/24 04:57:33;;;;;;;7.90;6.80;;;-40.00;99.90;;;;;;5137304;27;20317;-76
2022/06/24 04:59:59;;;;;;;7.23;6.53;;;-40.00;99.90;;;;;;5138827;27;20564;-73
2022/06/24 05:02:25;;;;;;;6.97;6.00;;;-40.00;99.90;;;;;;5138772;27;20165;-71
2022/06/24 05:04:51;;;;;;;5.90;5.50;;;-40.00;99.90;;;;;;5141807;27;20211;-70
2022/06/24 05:07:17;;;;;;;6.33;5.77;;;-40.00;99.90;;;;;;5138580;27;20166;-76
2022/06/24 05:09:43;;;;;;;7.47;6.87;;;-40.00;99.90;;;;;;5137388;27;20233;-79
2022/06/24 05:12:09;;;;;;;9.80;6.47;;;-40.00;99.90;;;;;;5138476;27;20200;-78
2022/06/24 05:14:35;;;;;;;7.40;5.90;;;-40.00;99.90;;;;;;5138648;27;20173;-75
2022/06/24 05:17:01;;;;;;;8.80;6.37;;;-40.00;99.90;;;;;;5137204;27;20223;-73
2022/06/24 05:19:28;;;;;;;12.07;5.83;;;-40.00;99.90;;;;;;5138035;27;20201;-73
2022/06/24 05:21:54;;;;;;;6.33;5.73;;;-40.00;99.90;;;;;;5138199;27;20538;-78
2022/06/24 05:24:20;;;;;;;7.27;5.80;;;-40.00;99.90;;;;;;5138343;27;20612;-77
2022/06/24 05:26:47;;;;;;;6.57;5.87;;;-40.00;99.90;;;;;;5138239;27;20164;-71
2022/06/24 05:29:13;;;;;;;11.67;6.53;;;-40.00;99.90;;;;;;5138295;27;20170;-78
2022/06/24 05:31:39;;;;;;;7.17;6.47;;;-40.00;99.90;;;;;;5137908;27;20226;-75
2022/06/24 05:34:06;;;;;;;13.93;6.40;;;-40.00;99.90;;;;;;5136756;27;20170;-73
2022/06/24 05:36:34;;;;;;;7.33;6.67;;;-40.00;99.90;;;;;;5137013;27;20193;-78
2022/06/24 05:39:06;;;;;;;7.60;6.93;;;-40.00;99.90;;;;;;5137237;27;20177;-79
2022/06/24 05:41:33;;;;;;;7.67;6.97;;;-40.00;99.90;;;;;;5137214;27;20177;-80
2022/06/24 05:44:00;;;;;;;6.23;5.73;;;-40.00;99.90;;;;;;5134938;27;20173;-77
2022/06/24 05:46:26;;;;;;;6.13;5.57;;;-40.00;99.90;;;;;;5141332;27;20200;-80
2022/06/24 05:48:52;;;;;;;7.23;4.77;;;-40.00;99.90;;;;;;5156986;27;20260;-78
2022/06/24 05:51:18;;;;;;;6.77;5.60;;;-40.00;99.90;;;;;;5152544;27;20287;-74
2022/06/24 05:56:37;;;;;;;7.97;5.37;;;-40.00;99.90;;;;;;5136747;27;20256;-74
2022/06/24 05:59:04;;;;;;;8.10;7.30;;;-40.00;99.90;;;;;;5136687;27;20166;-78
2022/06/24 06:01:30;;;;;;;7.50;6.30;;;-40.00;99.90;;;;;;5137429;27;20169;-72
2022/06/24 06:03:56;;;;;;;6.13;5.67;;;-40.00;99.90;;;;;;5136986;27;20169;-76
2022/06/24 06:06:23;;;;;;;7.40;6.70;;;-40.00;99.90;;;;;;5136793;27;20581;-75
2022/06/24 06:08:49;;;;;;;7.53;5.97;;;-40.00;99.90;;;;;;5135768;27;20173;-77
2022/06/24 06:11:19;;;;;;;10.90;7.00;;;-40.00;99.90;;;;;;5137410;27;20557;-75
2022/06/24 06:13:47;;;;;;;10.13;5.97;;;-40.00;99.90;;;;;;5137180;27;20166;-72
2022/06/24 06:16:13;;;;;;;7.60;6.90;;;-40.00;99.90;;;;;;5137066;27;20173;-76
2022/06/24 06:18:39;;;;;;;7.83;6.07;;;-40.00;99.90;;;;;;5136731;27;20176;-77
2022/06/24 06:21:08;;;;;;;8.20;6.20;;;-40.00;99.90;;;;;;5136842;27;20165;-76
2022/06/24 06:23:36;;;;;;;5.60;5.13;;;-40.00;99.90;;;;;;5136972;27;20234;-71
2022/06/24 06:26:04;;;;;;;7.30;6.30;;;-40.00;99.90;;;;;;5135984;27;20499;-71
2022/06/24 06:28:30;;;;;;;7.10;6.23;;;-40.00;99.90;;;;;;5137010;27;20633;-74
2022/06/24 06:30:56;;;;;;;7.20;6.27;;;-40.00;99.90;;;;;;5136990;27;20582;-71
2022/06/24 06:33:22;;;;;;;8.83;5.67;;;-40.00;99.90;;;;;;5136600;27;20244;-68
2022/06/24 06:35:48;;;;;;;6.20;5.33;;;-40.00;99.90;;;;;;5136979;27;20561;-70
2022/06/24 06:38:15;;;;;;;5.57;5.07;;;-40.00;99.90;;;;;;5136897;27;20220;-68
2022/06/24 06:40:41;;;;;;;5.17;4.77;;;-40.00;99.90;;;;;;5136784;27;20177;-68
2022/06/24 06:43:09;;;;;;;4.63;4.30;;;-40.00;99.90;;;;;;5136702;27;20452;-68
2022/06/24 06:45:36;;;;;;;4.60;4.20;;;-40.00;99.90;;;;;;5136605;27;20217;-68
2022/06/24 06:48:03;;;;;;;5.80;5.30;;;-40.00;99.90;;;;;;5135310;27;20192;-77
2022/06/24 06:50:29;;;;;;;4.87;4.47;;;-40.00;99.90;;;;;;5136575;27;20177;-69
2022/06/24 06:52:55;;;;;;;5.47;4.97;;;-40.00;99.90;;;;;;5136717;27;20245;-69
2022/06/24 06:55:21;;;;;;;6.97;5.10;;;-40.00;99.90;;;;;;5136633;27;20169;-71
2022/06/24 06:57:47;;;;;;;13.10;5.50;;;-40.00;99.90;;;;;;5135435;27;20552;-70
2022/06/24 07:00:15;;;;;;;7.50;6.80;;;-40.00;99.90;;;;;;5136555;27;20169;-73
2022/06/24 07:02:41;;;;;;;5.30;4.90;;;-40.00;99.90;;;;;;5136511;27;20240;-67
2022/06/24 07:05:07;;;;;;;5.73;4.70;;;-40.00;99.90;;;;;;5136351;27;20296;-67
2022/06/24 07:07:34;;;;;;;6.33;5.47;;;-40.00;99.90;;;;;;5136588;27;20170;-69
2022/06/24 07:10:00;;;;;;;5.27;4.73;;;-40.00;99.90;;;;;;5135442;27;20169;-70
2022/06/24 07:12:26;;;;;;;5.57;4.60;;;-40.00;99.90;;;;;;5136860;27;20238;-69
2022/06/24 07:14:53;;;;;;;5.50;4.73;;;-40.00;99.90;;;;;;5136410;27;20260;-76
2022/06/24 07:17:19;;;;;;;5.43;4.93;;;-40.00;99.90;;;;;;5135184;27;20173;-70
2022/06/24 07:19:46;;;;;;;5.23;4.80;;;-40.00;99.90;;;;;;5138826;27;20190;-67
2022/06/24 07:22:12;;;;;;;4.73;4.33;;;-40.00;99.90;;;;;;5140944;27;20165;-68
2022/06/24 07:24:38;;;;;;;5.53;5.00;;;-40.00;99.90;;;;;;5140483;27;20224;-67
2022/06/24 07:27:05;;;;;;;6.17;5.57;;;-40.00;99.90;;;;;;5140787;27;20576;-68
2022/06/24 07:29:35;;;;;;;5.50;5.10;;;-40.00;99.90;;;;;;5139589;27;20584;-71
2022/06/24 07:32:02;;;;;;;5.33;4.83;;;-40.00;99.90;;;;;;5140148;27;20175;-72
2022/06/24 07:34:30;;;;;;;5.07;4.60;;;-40.00;99.90;;;;;;5140095;27;20180;-70
2022/06/24 07:36:57;;;;;;;4.63;4.33;;;-40.00;99.90;;;;;;5139218;27;20189;-67
2022/06/24 07:39:23;;;;;;;5.23;4.70;;;-40.00;99.90;;;;;;5139295;27;20626;-67
2022/06/24 07:41:49;;;;;;;4.60;4.30;;;-40.00;99.90;;;;;;5139999;27;20173;-71
2022/06/24 07:44:15;;;;;;;5.53;5.10;;;-40.00;99.90;;;;;;5139921;27;20467;-71
2022/06/24 07:46:40;;;;;;;5.03;4.63;;;-40.00;99.90;;;;;;5139440;27;20180;-70
2022/06/24 07:49:06;;;;;;;5.37;4.57;;;-40.00;99.90;;;;;;5140067;27;20537;-70
2022/06/24 07:51:32;;;;;;;16.97;6.30;;;-40.00;99.90;;;;;;5139560;27;20185;-72
2022/06/24 07:53:58;;;;;;;5.47;5.07;;;-40.00;99.90;;;;;;5139090;27;20572;-70
2022/06/24 07:59:08;;;;;;;2.80;2.60;;;-40.00;99.90;;;;;;5149652;27;20184;-67
2022/06/24 08:01:34;;;;;;;6.70;2.13;;;-40.00;99.90;;;;;;5160110;27;20169;-71
2022/06/24 08:04:07;;;;;;;2.10;2.00;;;-40.00;99.90;;;;;;5160599;27;20195;-70
2022/06/24 08:06:40;;;;;;;1.83;1.73;;;-40.00;99.90;;;;;;5160565;27;20193;-68
2022/06/24 08:09:07;;;;;;;5.57;2.50;;;-40.00;99.90;;;;;;5159647;27;20176;-67
2022/06/24 08:11:33;;;;;;;7.10;3.37;;;-40.00;99.90;;;;;;5147759;27;20235;-68
2022/06/24 08:13:59;;;;;;;10.43;3.27;;;-40.00;99.90;;;;;;5139259;27;20173;-68
2022/06/24 08:16:25;;;;;;;4.67;2.93;;;-40.00;99.90;;;;;;5138247;27;20470;-71
2022/06/24 08:18:52;;;;;;;7.23;2.27;;;-40.00;99.90;;;;;;5139535;27;20191;-71
2022/06/24 08:21:18;;;;;;;5.13;3.37;;;-40.00;99.90;;;;;;5139311;27;20165;-70
2022/06/24 08:23:44;;;;;;;5.67;3.27;;;-40.00;99.90;;;;;;5138420;27;20173;-71
2022/06/24 08:26:09;;;;;;;2.30;2.20;;;-40.00;99.90;;;;;;5139092;27;20632;-71
2022/06/24 08:28:35;;;;;;;2.80;2.70;;;-40.00;99.90;;;;;;5129054;27;20630;-74
2022/06/24 08:31:02;;;;;;;3.20;2.90;;;-40.00;99.90;;;;;;5136192;27;20189;-70
2022/06/24 08:33:28;;;;;;;19.33;3.53;;;-40.00;99.90;;;;;;5135386;27;20196;-71
2022/06/24 08:35:53;;;;;;;2.30;2.20;;;-40.00;99.90;;;;;;5136002;27;20272;-73
2022/06/24 08:38:20;;;;;;;3.37;3.07;;;-40.00;99.90;;;;;;5137649;27;20297;-76
2022/06/24 08:40:50;;;;;;;2.60;2.43;;;-40.00;99.90;;;;;;5138238;27;20488;-73
2022/06/24 08:43:17;;;;;;;5.23;2.77;;;-40.00;99.90;;;;;;5134992;27;20216;-71
2022/06/24 08:45:43;;;;;;;2.33;2.13;;;-40.00;99.90;;;;;;5137577;27;20265;-71
2022/06/24 08:48:13;;;;;;;2.33;1.60;;;-40.00;99.90;;;;;;5138397;27;20629;-71
2022/06/24 08:50:39;;;;;;;2.17;2.03;;;-40.00;99.90;;;;;;5137510;27;20200;-71
2022/06/24 08:53:10;;;;;;;2.83;2.73;;;-40.00;99.90;;;;;;5137862;27;20464;-69
2022/06/24 08:55:41;;;;;;;3.10;1.90;;;-40.00;99.90;;;;;;5136112;27;20461;-74
2022/06/24 08:58:11;;;;;;;3.83;2.30;;;-40.00;99.90;;;;;;5136383;27;20255;-69
2022/06/24 09:00:39;;;;;;;2.60;2.40;;;-40.00;99.90;;;;;;5137795;27;20173;-73
2022/06/24 09:03:06;;;;;;;2.83;2.63;;;-40.00;99.90;;;;;;5136866;27;20181;-69
2022/06/24 09:05:32;;;;;;;1.77;1.67;;;-40.00;99.90;;;;;;5136980;27;20200;-70
2022/06/24 09:08:05;;;;;;;2.50;2.40;;;-40.00;99.90;;;;;;5136375;27;20179;-71
2022/06/24 09:10:31;;;;;;;4.90;2.27;;;-40.00;99.90;;;;;;5137077;27;20173;-72
2022/06/24 09:12:56;;;;;;;7.30;2.07;;;-40.00;99.90;;;;;;5136570;27;20226;-68
2022/06/24 09:15:23;;;;;;;2.57;1.43;;;-40.00;99.90;;;;;;5137041;27;20583;-70
2022/06/24 09:17:49;;;;;;;2.47;1.87;;;-40.00;99.90;;;;;;5136994;27;20188;-70
2022/06/24 09:20:21;;;;;;;1.10;1.10;;;-40.00;99.90;;;;;;5137520;27;20172;-71
2022/06/24 09:22:48;;;;;;;1.83;1.40;;;-40.00;99.90;;;;;;5136780;27;20223;-69
2022/06/24 09:25:14;;;;;;;1.57;1.47;;;-40.00;99.90;;;;;;5137588;27;20196;-70
2022/06/24 09:27:47;;;;;;;1.50;1.50;;;-40.00;99.90;;;;;;5136553;27;20177;-76
2022/06/24 09:30:16;;;;;;;3.30;1.87;;;-40.00;99.90;;;;;;5136655;27;20584;-69
2022/06/24 09:32:52;;;;;;;2.50;1.47;;;-40.00;99.90;;;;;;5135360;27;20177;-65
2022/06/24 09:35:19;;;;;;;1.83;1.73;;;-40.00;99.90;;;;;;5135136;27;20177;-68
2022/06/24 09:37:51;;;;;;;2.57;1.83;;;-40.00;99.90;;;;;;5136467;27;20328;-74
2022/06/24 09:40:22;;;;;;;2.37;1.73;;;-40.00;99.90;;;;;;5136126;27;20252;-71
2022/06/24 09:43:02;;;;;;;1.80;1.70;;;-40.00;99.90;;;;;;5135873;27;20169;-76
2022/06/24 09:45:49;;;;;;;13.37;2.80;;;-40.00;99.90;;;;;;5135759;27;20201;-68
2022/06/24 09:48:35;;;;;;;1.50;1.50;;;-40.00;99.90;;;;;;5135625;27;20165;-71
2022/06/24 09:51:05;;;;;;;3.07;2.30;;;-40.00;99.90;;;;;;5136101;27;20219;-72
2022/06/24 09:53:37;;;;;;;3.30;1.30;;;-40.00;99.90;;;;;;5136497;27;20173;-73
2022/06/24 09:56:07;;;;;;;2.10;1.53;;;-40.00;99.90;;;;;;5135157;27;20181;-70
2022/06/24 09:58:34;;;;;;;1.63;1.53;;;-40.00;99.90;;;;;;5134600;27;20177;-75
2022/06/24 10:01:00;;;;;;;1.40;1.40;;;-40.00;99.90;;;;;;5135974;27;20173;-72
2022/06/24 10:03:28;;;;;;;1.63;1.53;;;-40.00;99.90;;;;;;5135451;27;20181;-67
2022/06/24 10:06:00;;;;;;;1.30;1.20;;;-40.00;99.90;;;;;;5135202;27;20626;-80
2022/06/24 10:08:30;;;;;;;1.57;1.47;;;-40.00;99.90;;;;;;5135410;27;20494;-79
2022/06/24 10:10:58;;;;;;;3.00;1.47;;;-40.00;99.90;;;;;;5135229;27;20176;-69
2022/06/24 10:13:34;;;;;;;1.57;1.50;;;-40.00;99.90;;;;;;5135882;27;20157;-74
2022/06/24 10:16:02;;;;;;;3.77;1.70;;;-40.00;99.90;;;;;;5130922;27;20261;-69
2022/06/24 10:18:40;;;;;;;1.97;1.17;;;-40.00;99.90;;;;;;5142937;27;20253;-78
2022/06/24 10:21:09;;;;;;;3.03;1.77;;;-40.00;99.90;;;;;;5156266;27;20176;-76
2022/06/24 10:23:40;;;;;;;2.17;1.80;;;-40.00;99.90;;;;;;5135773;27;20181;-69
2022/06/24 10:26:34;;;;;;;2.10;1.70;;;-40.00;99.90;;;;;;5136928;27;20200;-69
2022/06/24 10:29:02;;;;;;;2.23;2.00;;;-40.00;99.90;;;;;;5136984;27;20170;-71
2022/06/24 10:34:29;;;;;;;1.70;1.60;;;-40.00;99.90;;;;;;5132123;27;20177;-79
2022/06/24 10:37:00;;;;;;;1.93;1.83;;;-40.00;99.90;;;;;;5119003;27;20192;-70
2022/06/24 10:39:31;;;;;;;2.43;2.33;;;-40.00;99.90;;;;;;5140020;27;20590;-70
2022/06/24 10:42:07;;;;;;;2.23;2.20;;;-40.00;99.90;;;;;;5135472;27;20169;-66
2022/06/24 10:44:49;;;;;;;2.37;2.27;;;-40.00;99.90;;;;;;5133013;27;20255;-76
2022/06/24 10:47:15;;;;;;;2.20;2.10;;;-40.00;99.90;;;;;;5118241;27;20196;-76
2022/06/24 10:49:55;;;;;;;2.10;2.00;;;-40.00;99.90;;;;;;5136485;27;20588;-82
2022/06/24 10:52:51;;;;;;;2.30;2.20;;;-40.00;99.90;;;;;;5135525;27;20280;-65
2022/06/24 10:55:28;;;;;;;2.83;2.63;;;-40.00;99.90;;;;;;5135319;27;20177;-69
2022/06/24 10:58:00;;;;;;;3.17;2.97;;;-40.00;99.90;;;;;;5136462;27;20165;-74
2022/06/24 11:00:48;;;;;;;2.40;2.30;;;-40.00;99.90;;;;;;5136520;27;20490;-75
2022/06/24 11:03:38;;;;;;;2.73;2.43;;;-40.00;99.90;;;;;;5136215;27;20187;-71
2022/06/24 11:06:03;;;;;;;2.33;2.23;;;-40.00;99.90;;;;;;5136432;27;20200;-66
2022/06/24 11:08:29;;;;;;;2.03;1.93;;;-40.00;99.90;;;;;;5135511;27;20177;-74
2022/06/24 11:10:55;;;;;;;2.20;2.00;;;-40.00;99.90;;;;;;5136329;28;20172;-73
2022/06/24 11:13:23;;;;;;;2.60;2.50;;;-40.00;99.90;;;;;;5134127;27;20686;-72
2022/06/24 11:15:51;;;;;;;2.87;2.67;;;-40.00;99.90;;;;;;5135427;27;20180;-73
2022/06/24 11:18:24;;;;;;;1.87;1.80;;;-40.00;99.90;;;;;;5134708;27;20587;-74
2022/06/24 11:20:55;;;;;;;1.63;1.63;;;-40.00;99.90;;;;;;5135096;27;20541;-77
2022/06/24 11:23:24;;;;;;;2.13;1.90;;;-40.00;99.90;;;;;;5134935;27;20200;-76
2022/06/24 11:25:55;;;;;;;1.67;1.57;;;-40.00;99.90;;;;;;5126973;27;20192;-67
2022/06/24 11:28:23;;;;;;;1.47;1.47;;;-40.00;99.90;;;;;;5131109;28;20222;-76
2022/06/24 11:30:51;;;;;;;1.87;1.77;;;-40.00;99.90;;;;;;5134639;27;20257;-79
2022/06/24 11:33:17;;;;;;;2.60;1.97;;;-40.00;99.90;;;;;;5134770;27;20177;-82
2022/06/24 11:35:42;;;;;;;2.50;2.33;;;-40.00;99.90;;;;;;5134257;27;20183;-82
2022/06/24 11:38:10;;;;;;;7.30;2.33;;;-40.00;99.90;;;;;;5134105;27;20629;-68
2022/06/24 11:40:36;;;;;;;1.60;1.50;;;-40.00;99.90;;;;;;5123578;28;20177;-70
2022/06/24 11:43:12;;;;;;;2.50;1.53;;;-40.00;99.90;;;;;;5134972;27;20592;-73
2022/06/24 11:45:44;;;;;;;1.87;1.77;;;-40.00;99.90;;;;;;5133297;28;20201;-77
2022/06/24 11:48:18;;;;;;;1.47;1.47;;;-40.00;99.90;;;;;;5135164;27;20177;-80
2022/06/24 11:50:44;;;;;;;2.43;1.50;;;-40.00;99.90;;;;;;5133050;27;20175;-77
2022/06/24 11:53:10;;;;;;;1.80;1.70;;;-40.00;96.70;;;;;;5134405;27;20173;-68
2022/06/24 11:55:38;;;;;;;1.30;1.30;;;-40.00;98.50;;;;;;5134882;27;20181;-68
2022/06/24 11:58:11;;;;;;;1.10;1.10;;;-40.00;97.30;;;;;;5134268;27;20725;-70
2022/06/24 12:00:40;;;;;;;13.17;1.73;;;-40.00;94.90;;;;;;5135003;27;20177;-69
2022/06/24 12:03:10;;;;;;;1.00;1.00;;;-40.00;94.10;;;;;;5134607;27;20169;-68
2022/06/24 12:05:44;;;;;;;1.80;0.80;;;-40.00;87.40;;;;;;5136241;27;20201;-68
2022/06/24 12:08:11;;;;;;;1.10;1.10;;;-40.00;91.10;;;;;;5137483;27;20185;-71
2022/06/24 12:10:52;;;;;;;1.10;1.10;;;-40.00;83.70;;;;;;5138373;27;20177;-69
2022/06/24 12:13:29;;;;;;;1.53;1.43;;;-40.00;82.60;;;;;;5137648;27;20177;-68
2022/06/24 12:15:56;;;;;;;1.80;0.93;;;-40.00;83.40;;;;;;5138603;27;20180;-68
2022/06/24 12:18:24;;;;;;;1.37;1.27;;;-40.00;79.80;;;;;;5138598;27;20184;-69
2022/06/24 12:20:57;;;;;;;1.60;1.50;;;-40.00;77.50;;;;;;5137576;27;20193;-68
2022/06/24 12:23:23;;;;;;;1.57;1.47;;;-40.00;80.80;;;;;;5126342;27;20180;-70
2022/06/24 12:25:51;;;;;;;1.57;1.47;;;-40.00;84.60;;;;;;5138066;27;20205;-69
2022/06/24 12:28:22;;;;;;;1.23;1.23;;;-40.00;88.80;;;;;;5137429;27;20164;-69
2022/06/24 12:31:03;;;;;;;1.83;1.73;;;-40.00;87.80;;;;;;5137119;27;20281;-74
2022/06/24 12:33:32;;;;;;;1.70;1.60;;;-40.00;83.80;;;;;;5136954;27;20293;-77
2022/06/24 12:36:09;;;;;;;2.27;2.07;;;-40.00;86.50;;;;;;5136780;27;20226;-72
2022/06/24 12:38:36;;;;;;;1.70;1.60;;;-40.00;82.80;;;;;;5137654;27;20747;-68
2022/06/24 12:41:10;;;;;;;1.90;1.80;;;-40.00;80.40;;;;;;5137867;27;20258;-69
2022/06/24 12:43:36;;;;;;;1.97;1.93;;;-40.00;80.00;;;;;;5138222;27;20192;-73
2022/06/24 12:46:04;;;;;;;3.03;2.33;;;-40.00;81.10;;;;;;5137611;27;20209;-70
2022/06/24 12:51:23;;;;;;;2.27;1.77;;;-40.00;70.40;;;;;;5137667;27;20234;-72
2022/06/24 12:53:50;;;;;;;1.70;1.60;;;-40.00;65.60;;;;;;5137081;27;20180;-71
2022/06/24 12:56:16;;;;;;;2.37;2.27;;;-40.00;70.40;;;;;;5136217;27;20177;-68